sensor_id;sensor_type;location;lat;lon;timestamp;P1;durP1;ratioP1;P2;durP2;ratioP2
19679;SDS011;9989;48.962;9.182;2023-01-25T00:01:31;29.37;;;14.77;;
19679;SDS011;9989;48.962;9.182;2023-01-25T00:03:56;27.30;;;14.00;;
19679;SDS011;9989;48.962;9.182;2023-01-25T00:06:22;26.13;;;13.80;;
19679;SDS011;9989;48.962;9.182;2023-01-25T00:08:48;28.60;;;14.27;;
19679;SDS011;9989;48.962;9.182;2023-01-25T00:11:15;29.43;;;14.87;;
19679;SDS011;9989;48.962;9.182;2023-01-25T00:13:44;29.07;;;15.47;;
19679;SDS011;9989;48.962;9.182;2023-01-25T00:16:10;31.30;;;15.33;;
19679;SDS011;9989;48.962;9.182;2023-01-25T00:18:36;33.03;;;16.43;;
19679;SDS011;9989;48.962;9.182;2023-01-25T00:21:14;32.00;;;15.10;;
19679;SDS011;9989;48.962;9.182;2023-01-25T00:23:45;30.57;;;14.93;;
19679;SDS011;9989;48.962;9.182;2023-01-25T00:26:10;35.60;;;16.17;;
19679;SDS011;9989;48.962;9.182;2023-01-25T00:28:36;27.70;;;14.90;;
19679;SDS011;9989;48.962;9.182;2023-01-25T00:31:03;32.93;;;14.63;;
19679;SDS011;9989;48.962;9.182;2023-01-25T00:36:02;31.33;;;15.10;;
19679;SDS011;9989;48.962;9.182;2023-01-25T00:38:58;29.50;;;14.60;;
19679;SDS011;9989;48.962;9.182;2023-01-25T00:41:24;33.33;;;15.03;;
19679;SDS011;9989;48.962;9.182;2023-01-25T00:43:50;28.87;;;15.13;;
19679;SDS011;9989;48.962;9.182;2023-01-25T00:46:16;31.37;;;15.23;;
19679;SDS011;9989;48.962;9.182;2023-01-25T00:48:42;34.60;;;16.90;;
19679;SDS011;9989;48.962;9.182;2023-01-25T00:51:08;32.47;;;16.70;;
19679;SDS011;9989;48.962;9.182;2023-01-25T00:53:34;30.53;;;15.10;;
19679;SDS011;9989;48.962;9.182;2023-01-25T00:55:59;31.63;;;15.33;;
19679;SDS011;9989;48.962;9.182;2023-01-25T00:58:26;30.43;;;15.87;;
19679;SDS011;9989;48.962;9.182;2023-01-25T01:00:52;34.17;;;16.27;;
19679;SDS011;9989;48.962;9.182;2023-01-25T01:03:18;29.07;;;14.73;;
19679;SDS011;9989;48.962;9.182;2023-01-25T01:05:44;30.10;;;14.33;;
19679;SDS011;9989;48.962;9.182;2023-01-25T01:08:10;34.27;;;15.90;;
19679;SDS011;9989;48.962;9.182;2023-01-25T01:10:37;30.57;;;15.60;;
19679;SDS011;9989;48.962;9.182;2023-01-25T01:13:02;28.50;;;14.40;;
19679;SDS011;9989;48.962;9.182;2023-01-25T01:15:28;28.13;;;14.70;;
19679;SDS011;9989;48.962;9.182;2023-01-25T01:17:54;31.10;;;16.10;;
19679;SDS011;9989;48.962;9.182;2023-01-25T01:20:19;29.70;;;14.63;;
19679;SDS011;9989;48.962;9.182;2023-01-25T01:22:45;32.10;;;15.83;;
19679;SDS011;9989;48.962;9.182;2023-01-25T01:25:11;28.03;;;13.80;;
19679;SDS011;9989;48.962;9.182;2023-01-25T01:27:37;29.70;;;14.07;;
19679;SDS011;9989;48.962;9.182;2023-01-25T01:30:03;31.57;;;15.23;;
19679;SDS011;9989;48.962;9.182;2023-01-25T01:32:29;30.00;;;14.37;;
19679;SDS011;9989;48.962;9.182;2023-01-25T01:34:54;31.17;;;15.90;;
19679;SDS011;9989;48.962;9.182;2023-01-25T01:37:20;30.57;;;14.53;;
19679;SDS011;9989;48.962;9.182;2023-01-25T01:39:46;32.27;;;15.17;;
19679;SDS011;9989;48.962;9.182;2023-01-25T01:42:11;28.17;;;14.23;;
19679;SDS011;9989;48.962;9.182;2023-01-25T01:47:30;27.73;;;14.77;;
19679;SDS011;9989;48.962;9.182;2023-01-25T01:50:07;28.47;;;14.70;;
19679;SDS011;9989;48.962;9.182;2023-01-25T01:52:44;34.00;;;16.40;;
19679;SDS011;9989;48.962;9.182;2023-01-25T01:55:12;32.93;;;14.60;;
19679;SDS011;9989;48.962;9.182;2023-01-25T01:57:50;30.17;;;15.57;;
19679;SDS011;9989;48.962;9.182;2023-01-25T02:00:20;32.13;;;16.37;;
19679;SDS011;9989;48.962;9.182;2023-01-25T02:02:49;29.00;;;14.43;;
19679;SDS011;9989;48.962;9.182;2023-01-25T02:05:27;34.80;;;15.00;;
19679;SDS011;9989;48.962;9.182;2023-01-25T02:08:06;31.63;;;14.40;;
19679;SDS011;9989;48.962;9.182;2023-01-25T02:10:34;30.17;;;14.47;;
19679;SDS011;9989;48.962;9.182;2023-01-25T02:13:02;32.60;;;15.93;;
19679;SDS011;9989;48.962;9.182;2023-01-25T02:15:36;32.93;;;15.00;;
19679;SDS011;9989;48.962;9.182;2023-01-25T02:18:06;32.40;;;15.83;;
19679;SDS011;9989;48.962;9.182;2023-01-25T02:20:37;31.30;;;15.23;;
19679;SDS011;9989;48.962;9.182;2023-01-25T02:25:53;32.80;;;15.43;;
19679;SDS011;9989;48.962;9.182;2023-01-25T02:30:53;31.97;;;15.80;;
19679;SDS011;9989;48.962;9.182;2023-01-25T02:33:21;32.90;;;15.67;;
19679;SDS011;9989;48.962;9.182;2023-01-25T02:35:48;30.73;;;15.47;;
19679;SDS011;9989;48.962;9.182;2023-01-25T02:38:22;30.00;;;15.57;;
19679;SDS011;9989;48.962;9.182;2023-01-25T02:40:52;31.97;;;15.63;;
19679;SDS011;9989;48.962;9.182;2023-01-25T02:43:22;30.43;;;14.27;;
19679;SDS011;9989;48.962;9.182;2023-01-25T02:45:54;33.57;;;15.20;;
19679;SDS011;9989;48.962;9.182;2023-01-25T02:48:24;30.43;;;14.63;;
19679;SDS011;9989;48.962;9.182;2023-01-25T02:50:50;30.27;;;14.43;;
19679;SDS011;9989;48.962;9.182;2023-01-25T02:53:15;33.17;;;16.20;;
19679;SDS011;9989;48.962;9.182;2023-01-25T02:55:41;31.93;;;15.43;;
19679;SDS011;9989;48.962;9.182;2023-01-25T02:58:06;35.70;;;16.17;;
19679;SDS011;9989;48.962;9.182;2023-01-25T03:00:32;31.00;;;14.83;;
19679;SDS011;9989;48.962;9.182;2023-01-25T03:02:58;28.43;;;14.63;;
19679;SDS011;9989;48.962;9.182;2023-01-25T03:05:23;30.20;;;13.80;;
19679;SDS011;9989;48.962;9.182;2023-01-25T03:07:49;30.77;;;15.47;;
19679;SDS011;9989;48.962;9.182;2023-01-25T03:10:14;30.63;;;15.27;;
19679;SDS011;9989;48.962;9.182;2023-01-25T03:12:40;25.57;;;13.30;;
19679;SDS011;9989;48.962;9.182;2023-01-25T03:15:06;26.93;;;12.83;;
19679;SDS011;9989;48.962;9.182;2023-01-25T03:17:32;26.93;;;12.80;;
19679;SDS011;9989;48.962;9.182;2023-01-25T03:19:57;29.77;;;13.27;;
19679;SDS011;9989;48.962;9.182;2023-01-25T03:22:23;26.17;;;12.37;;
19679;SDS011;9989;48.962;9.182;2023-01-25T03:24:48;22.67;;;11.23;;
19679;SDS011;9989;48.962;9.182;2023-01-25T03:27:14;26.30;;;12.53;;
19679;SDS011;9989;48.962;9.182;2023-01-25T03:29:42;23.87;;;12.13;;
19679;SDS011;9989;48.962;9.182;2023-01-25T03:32:09;24.73;;;12.57;;
19679;SDS011;9989;48.962;9.182;2023-01-25T03:34:35;30.27;;;12.73;;
19679;SDS011;9989;48.962;9.182;2023-01-25T03:37:00;25.27;;;12.60;;
19679;SDS011;9989;48.962;9.182;2023-01-25T03:39:26;24.57;;;11.93;;
19679;SDS011;9989;48.962;9.182;2023-01-25T03:41:52;24.87;;;12.50;;
19679;SDS011;9989;48.962;9.182;2023-01-25T03:44:18;25.57;;;12.67;;
19679;SDS011;9989;48.962;9.182;2023-01-25T03:46:43;25.70;;;12.73;;
19679;SDS011;9989;48.962;9.182;2023-01-25T03:49:09;23.17;;;11.20;;
19679;SDS011;9989;48.962;9.182;2023-01-25T03:51:35;23.50;;;11.13;;
19679;SDS011;9989;48.962;9.182;2023-01-25T03:54:01;21.57;;;10.63;;
19679;SDS011;9989;48.962;9.182;2023-01-25T03:56:27;21.67;;;10.13;;
19679;SDS011;9989;48.962;9.182;2023-01-25T03:58:52;21.20;;;10.43;;
19679;SDS011;9989;48.962;9.182;2023-01-25T04:01:18;20.27;;;9.97;;
19679;SDS011;9989;48.962;9.182;2023-01-25T04:03:44;17.03;;;9.50;;
19679;SDS011;9989;48.962;9.182;2023-01-25T04:06:09;19.53;;;9.30;;
19679;SDS011;9989;48.962;9.182;2023-01-25T04:08:35;19.83;;;9.37;;
19679;SDS011;9989;48.962;9.182;2023-01-25T04:11:05;21.73;;;10.10;;
19679;SDS011;9989;48.962;9.182;2023-01-25T04:13:32;17.17;;;9.30;;
19679;SDS011;9989;48.962;9.182;2023-01-25T04:16:02;22.07;;;8.43;;
19679;SDS011;9989;48.962;9.182;2023-01-25T04:18:29;16.63;;;8.77;;
19679;SDS011;9989;48.962;9.182;2023-01-25T04:20:54;19.57;;;9.23;;
19679;SDS011;9989;48.962;9.182;2023-01-25T04:23:21;18.30;;;9.47;;
19679;SDS011;9989;48.962;9.182;2023-01-25T04:25:51;17.33;;;8.63;;
19679;SDS011;9989;48.962;9.182;2023-01-25T04:28:17;17.43;;;8.40;;
19679;SDS011;9989;48.962;9.182;2023-01-25T04:30:43;18.53;;;8.70;;
19679;SDS011;9989;48.962;9.182;2023-01-25T04:33:09;17.73;;;8.93;;
19679;SDS011;9989;48.962;9.182;2023-01-25T04:35:35;18.47;;;8.97;;
19679;SDS011;9989;48.962;9.182;2023-01-25T04:38:01;16.57;;;9.47;;
19679;SDS011;9989;48.962;9.182;2023-01-25T04:40:27;17.23;;;8.83;;
19679;SDS011;9989;48.962;9.182;2023-01-25T04:42:53;20.23;;;9.93;;
19679;SDS011;9989;48.962;9.182;2023-01-25T04:45:19;17.33;;;8.63;;
19679;SDS011;9989;48.962;9.182;2023-01-25T04:47:44;17.80;;;9.03;;
19679;SDS011;9989;48.962;9.182;2023-01-25T04:50:10;18.57;;;8.80;;
19679;SDS011;9989;48.962;9.182;2023-01-25T04:52:35;18.47;;;8.53;;
19679;SDS011;9989;48.962;9.182;2023-01-25T04:55:01;19.50;;;9.63;;
19679;SDS011;9989;48.962;9.182;2023-01-25T04:57:27;16.90;;;8.07;;
19679;SDS011;9989;48.962;9.182;2023-01-25T04:59:52;17.93;;;9.17;;
19679;SDS011;9989;48.962;9.182;2023-01-25T05:02:18;17.77;;;8.80;;
19679;SDS011;9989;48.962;9.182;2023-01-25T05:04:43;16.20;;;8.33;;
19679;SDS011;9989;48.962;9.182;2023-01-25T05:07:09;17.77;;;8.47;;
19679;SDS011;9989;48.962;9.182;2023-01-25T05:09:34;18.83;;;8.97;;
19679;SDS011;9989;48.962;9.182;2023-01-25T05:12:00;16.57;;;8.07;;
19679;SDS011;9989;48.962;9.182;2023-01-25T05:14:35;16.33;;;8.73;;
19679;SDS011;9989;48.962;9.182;2023-01-25T05:17:01;16.33;;;7.97;;
19679;SDS011;9989;48.962;9.182;2023-01-25T05:19:27;17.13;;;8.27;;
19679;SDS011;9989;48.962;9.182;2023-01-25T05:21:53;14.93;;;7.67;;
19679;SDS011;9989;48.962;9.182;2023-01-25T05:24:22;16.00;;;8.03;;
19679;SDS011;9989;48.962;9.182;2023-01-25T05:26:48;18.43;;;8.63;;
19679;SDS011;9989;48.962;9.182;2023-01-25T05:30:01;15.57;;;7.87;;
19679;SDS011;9989;48.962;9.182;2023-01-25T05:32:21;16.13;;;8.33;;
19679;SDS011;9989;48.962;9.182;2023-01-25T05:34:47;16.03;;;8.23;;
19679;SDS011;9989;48.962;9.182;2023-01-25T05:37:14;15.87;;;8.33;;
19679;SDS011;9989;48.962;9.182;2023-01-25T05:39:41;15.67;;;7.87;;
19679;SDS011;9989;48.962;9.182;2023-01-25T05:42:09;17.27;;;8.47;;
19679;SDS011;9989;48.962;9.182;2023-01-25T05:44:36;15.70;;;8.77;;
19679;SDS011;9989;48.962;9.182;2023-01-25T05:47:02;15.97;;;7.83;;
19679;SDS011;9989;48.962;9.182;2023-01-25T05:49:28;17.57;;;9.57;;
19679;SDS011;9989;48.962;9.182;2023-01-25T05:51:53;18.90;;;9.43;;
19679;SDS011;9989;48.962;9.182;2023-01-25T05:54:19;19.07;;;9.00;;
19679;SDS011;9989;48.962;9.182;2023-01-25T05:56:45;16.87;;;8.13;;
19679;SDS011;9989;48.962;9.182;2023-01-25T05:59:14;17.60;;;8.57;;
19679;SDS011;9989;48.962;9.182;2023-01-25T06:01:41;30.33;;;14.33;;
19679;SDS011;9989;48.962;9.182;2023-01-25T06:04:07;46.40;;;23.97;;
19679;SDS011;9989;48.962;9.182;2023-01-25T06:06:33;26.73;;;14.07;;
19679;SDS011;9989;48.962;9.182;2023-01-25T06:08:59;22.13;;;11.30;;
19679;SDS011;9989;48.962;9.182;2023-01-25T06:11:25;17.73;;;10.10;;
19679;SDS011;9989;48.962;9.182;2023-01-25T06:13:51;14.90;;;8.10;;
19679;SDS011;9989;48.962;9.182;2023-01-25T06:16:17;19.13;;;10.20;;
19679;SDS011;9989;48.962;9.182;2023-01-25T06:18:44;18.20;;;9.30;;
19679;SDS011;9989;48.962;9.182;2023-01-25T06:21:10;17.87;;;9.43;;
19679;SDS011;9989;48.962;9.182;2023-01-25T06:23:35;19.83;;;9.40;;
19679;SDS011;9989;48.962;9.182;2023-01-25T06:26:03;17.53;;;8.73;;
19679;SDS011;9989;48.962;9.182;2023-01-25T06:28:31;16.07;;;8.30;;
19679;SDS011;9989;48.962;9.182;2023-01-25T06:33:30;15.27;;;7.53;;
19679;SDS011;9989;48.962;9.182;2023-01-25T06:36:00;16.87;;;7.73;;
19679;SDS011;9989;48.962;9.182;2023-01-25T06:38:30;16.67;;;8.10;;
19679;SDS011;9989;48.962;9.182;2023-01-25T06:40:59;15.63;;;7.90;;
19679;SDS011;9989;48.962;9.182;2023-01-25T06:43:26;16.73;;;8.20;;
19679;SDS011;9989;48.962;9.182;2023-01-25T06:45:51;17.83;;;8.60;;
19679;SDS011;9989;48.962;9.182;2023-01-25T06:48:17;15.80;;;8.80;;
19679;SDS011;9989;48.962;9.182;2023-01-25T06:50:42;15.93;;;7.70;;
19679;SDS011;9989;48.962;9.182;2023-01-25T06:53:08;17.07;;;7.93;;
19679;SDS011;9989;48.962;9.182;2023-01-25T06:55:33;18.00;;;7.40;;
19679;SDS011;9989;48.962;9.182;2023-01-25T06:57:59;14.10;;;7.30;;
19679;SDS011;9989;48.962;9.182;2023-01-25T07:00:25;20.67;;;10.57;;
19679;SDS011;9989;48.962;9.182;2023-01-25T07:02:51;18.73;;;9.13;;
19679;SDS011;9989;48.962;9.182;2023-01-25T07:05:16;20.90;;;10.27;;
19679;SDS011;9989;48.962;9.182;2023-01-25T07:07:45;19.07;;;9.97;;
19679;SDS011;9989;48.962;9.182;2023-01-25T07:10:11;19.43;;;9.77;;
19679;SDS011;9989;48.962;9.182;2023-01-25T07:12:36;16.60;;;8.47;;
19679;SDS011;9989;48.962;9.182;2023-01-25T07:15:02;17.20;;;8.30;;
19679;SDS011;9989;48.962;9.182;2023-01-25T07:17:28;17.33;;;8.53;;
19679;SDS011;9989;48.962;9.182;2023-01-25T07:19:53;15.60;;;7.43;;
19679;SDS011;9989;48.962;9.182;2023-01-25T07:22:19;14.87;;;7.80;;
19679;SDS011;9989;48.962;9.182;2023-01-25T07:24:44;16.50;;;7.43;;
19679;SDS011;9989;48.962;9.182;2023-01-25T07:27:14;18.40;;;8.57;;
19679;SDS011;9989;48.962;9.182;2023-01-25T07:29:40;17.63;;;8.30;;
19679;SDS011;9989;48.962;9.182;2023-01-25T07:32:06;17.47;;;8.50;;
19679;SDS011;9989;48.962;9.182;2023-01-25T07:34:32;21.40;;;9.03;;
19679;SDS011;9989;48.962;9.182;2023-01-25T07:36:57;16.87;;;9.13;;
19679;SDS011;9989;48.962;9.182;2023-01-25T07:39:23;15.77;;;8.50;;
19679;SDS011;9989;48.962;9.182;2023-01-25T07:41:48;15.63;;;8.90;;
19679;SDS011;9989;48.962;9.182;2023-01-25T07:44:14;17.47;;;8.07;;
19679;SDS011;9989;48.962;9.182;2023-01-25T07:46:39;16.33;;;8.73;;
19679;SDS011;9989;48.962;9.182;2023-01-25T07:49:05;18.87;;;9.07;;
19679;SDS011;9989;48.962;9.182;2023-01-25T07:51:31;15.63;;;8.13;;
19679;SDS011;9989;48.962;9.182;2023-01-25T07:53:57;16.27;;;8.70;;
19679;SDS011;9989;48.962;9.182;2023-01-25T07:56:26;14.10;;;7.43;;
19679;SDS011;9989;48.962;9.182;2023-01-25T07:58:57;16.83;;;8.20;;
19679;SDS011;9989;48.962;9.182;2023-01-25T08:01:23;16.33;;;7.80;;
19679;SDS011;9989;48.962;9.182;2023-01-25T08:03:51;13.93;;;7.70;;
19679;SDS011;9989;48.962;9.182;2023-01-25T08:06:21;15.20;;;7.53;;
19679;SDS011;9989;48.962;9.182;2023-01-25T08:08:54;16.33;;;8.50;;
19679;SDS011;9989;48.962;9.182;2023-01-25T08:11:23;15.43;;;8.20;;
19679;SDS011;9989;48.962;9.182;2023-01-25T08:13:52;17.07;;;8.33;;
19679;SDS011;9989;48.962;9.182;2023-01-25T08:16:19;18.33;;;8.87;;
19679;SDS011;9989;48.962;9.182;2023-01-25T08:18:46;17.87;;;8.83;;
19679;SDS011;9989;48.962;9.182;2023-01-25T08:21:13;17.43;;;8.87;;
19679;SDS011;9989;48.962;9.182;2023-01-25T08:23:38;16.63;;;8.10;;
19679;SDS011;9989;48.962;9.182;2023-01-25T08:26:04;16.20;;;7.87;;
19679;SDS011;9989;48.962;9.182;2023-01-25T08:28:31;16.47;;;8.57;;
19679;SDS011;9989;48.962;9.182;2023-01-25T08:31:07;18.60;;;9.23;;
19679;SDS011;9989;48.962;9.182;2023-01-25T08:33:37;16.57;;;8.70;;
19679;SDS011;9989;48.962;9.182;2023-01-25T08:36:03;19.97;;;9.50;;
19679;SDS011;9989;48.962;9.182;2023-01-25T08:38:30;22.53;;;10.67;;
19679;SDS011;9989;48.962;9.182;2023-01-25T08:41:03;17.80;;;8.20;;
19679;SDS011;9989;48.962;9.182;2023-01-25T08:43:33;18.83;;;8.83;;
19679;SDS011;9989;48.962;9.182;2023-01-25T08:45:58;15.40;;;7.80;;
19679;SDS011;9989;48.962;9.182;2023-01-25T08:48:24;15.33;;;7.93;;
19679;SDS011;9989;48.962;9.182;2023-01-25T08:50:50;18.50;;;8.33;;
19679;SDS011;9989;48.962;9.182;2023-01-25T08:53:15;15.77;;;7.90;;
19679;SDS011;9989;48.962;9.182;2023-01-25T08:55:41;16.70;;;8.13;;
19679;SDS011;9989;48.962;9.182;2023-01-25T08:58:10;17.60;;;8.97;;
19679;SDS011;9989;48.962;9.182;2023-01-25T09:00:37;18.63;;;9.10;;
19679;SDS011;9989;48.962;9.182;2023-01-25T09:03:03;18.87;;;8.40;;
19679;SDS011;9989;48.962;9.182;2023-01-25T09:05:29;15.67;;;7.93;;
19679;SDS011;9989;48.962;9.182;2023-01-25T09:07:57;15.97;;;8.17;;
19679;SDS011;9989;48.962;9.182;2023-01-25T09:10:23;62.63;;;29.83;;
19679;SDS011;9989;48.962;9.182;2023-01-25T09:12:48;40.07;;;17.37;;
19679;SDS011;9989;48.962;9.182;2023-01-25T09:15:14;19.30;;;9.90;;
19679;SDS011;9989;48.962;9.182;2023-01-25T09:17:39;16.83;;;8.60;;
19679;SDS011;9989;48.962;9.182;2023-01-25T09:20:05;19.13;;;9.80;;
19679;SDS011;9989;48.962;9.182;2023-01-25T09:22:31;18.13;;;8.57;;
19679;SDS011;9989;48.962;9.182;2023-01-25T09:24:57;17.37;;;8.83;;
19679;SDS011;9989;48.962;9.182;2023-01-25T09:27:23;14.67;;;7.70;;
19679;SDS011;9989;48.962;9.182;2023-01-25T09:29:48;17.07;;;8.90;;
19679;SDS011;9989;48.962;9.182;2023-01-25T09:32:14;18.63;;;8.50;;
19679;SDS011;9989;48.962;9.182;2023-01-25T09:34:39;17.60;;;8.80;;
19679;SDS011;9989;48.962;9.182;2023-01-25T09:37:05;21.83;;;10.13;;
19679;SDS011;9989;48.962;9.182;2023-01-25T09:39:31;16.00;;;8.17;;
19679;SDS011;9989;48.962;9.182;2023-01-25T09:44:38;16.47;;;8.03;;
19679;SDS011;9989;48.962;9.182;2023-01-25T09:47:37;17.80;;;8.33;;
19679;SDS011;9989;48.962;9.182;2023-01-25T09:55:48;16.07;;;7.93;;
19679;SDS011;9989;48.962;9.182;2023-01-25T09:58:37;15.90;;;7.40;;
19679;SDS011;9989;48.962;9.182;2023-01-25T10:03:47;18.80;;;9.57;;
19679;SDS011;9989;48.962;9.182;2023-01-25T10:06:26;17.97;;;8.40;;
19679;SDS011;9989;48.962;9.182;2023-01-25T10:09:02;17.53;;;8.73;;
19679;SDS011;9989;48.962;9.182;2023-01-25T10:11:32;16.87;;;8.63;;
19679;SDS011;9989;48.962;9.182;2023-01-25T10:13:58;15.60;;;8.03;;
19679;SDS011;9989;48.962;9.182;2023-01-25T10:19:13;15.43;;;8.37;;
19679;SDS011;9989;48.962;9.182;2023-01-25T10:27:36;17.33;;;8.77;;
19679;SDS011;9989;48.962;9.182;2023-01-25T10:30:17;16.07;;;8.27;;
19679;SDS011;9989;48.962;9.182;2023-01-25T10:32:50;15.80;;;7.50;;
19679;SDS011;9989;48.962;9.182;2023-01-25T10:35:20;18.90;;;8.13;;
19679;SDS011;9989;48.962;9.182;2023-01-25T10:37:48;16.23;;;8.03;;
19679;SDS011;9989;48.962;9.182;2023-01-25T10:40:21;17.47;;;8.70;;
19679;SDS011;9989;48.962;9.182;2023-01-25T10:42:54;16.63;;;8.27;;
19679;SDS011;9989;48.962;9.182;2023-01-25T10:45:25;15.17;;;7.83;;
19679;SDS011;9989;48.962;9.182;2023-01-25T10:47:51;15.67;;;8.07;;
19679;SDS011;9989;48.962;9.182;2023-01-25T10:55:57;15.90;;;7.93;;
19679;SDS011;9989;48.962;9.182;2023-01-25T10:58:37;16.87;;;9.07;;
19679;SDS011;9989;48.962;9.182;2023-01-25T11:01:05;17.23;;;7.90;;
19679;SDS011;9989;48.962;9.182;2023-01-25T11:03:42;14.03;;;7.43;;
19679;SDS011;9989;48.962;9.182;2023-01-25T11:06:11;15.97;;;8.13;;
19679;SDS011;9989;48.962;9.182;2023-01-25T11:08:40;16.43;;;7.93;;
19679;SDS011;9989;48.962;9.182;2023-01-25T11:13:55;13.23;;;6.83;;
19679;SDS011;9989;48.962;9.182;2023-01-25T11:16:31;16.00;;;7.43;;
19679;SDS011;9989;48.962;9.182;2023-01-25T11:19:00;14.90;;;8.23;;
19679;SDS011;9989;48.962;9.182;2023-01-25T11:21:30;19.37;;;9.53;;
19679;SDS011;9989;48.962;9.182;2023-01-25T11:26:28;14.10;;;7.83;;
19679;SDS011;9989;48.962;9.182;2023-01-25T11:31:44;15.37;;;7.93;;
19679;SDS011;9989;48.962;9.182;2023-01-25T11:34:15;16.53;;;7.90;;
19679;SDS011;9989;48.962;9.182;2023-01-25T11:42:03;14.10;;;7.50;;
19679;SDS011;9989;48.962;9.182;2023-01-25T11:45:02;16.57;;;8.13;;
19679;SDS011;9989;48.962;9.182;2023-01-25T11:56:00;30.03;;;15.03;;
19679;SDS011;9989;48.962;9.182;2023-01-25T12:04:13;21.20;;;10.77;;
19679;SDS011;9989;48.962;9.182;2023-01-25T12:06:56;18.33;;;9.27;;
19679;SDS011;9989;48.962;9.182;2023-01-25T12:12:43;15.90;;;8.23;;
19679;SDS011;9989;48.962;9.182;2023-01-25T12:28:38;19.63;;;9.03;;
19679;SDS011;9989;48.962;9.182;2023-01-25T12:34:09;14.83;;;8.17;;
19679;SDS011;9989;48.962;9.182;2023-01-25T12:36:43;16.67;;;8.43;;
19679;SDS011;9989;48.962;9.182;2023-01-25T12:47:03;19.10;;;9.77;;
19679;SDS011;9989;48.962;9.182;2023-01-25T12:50:00;22.30;;;12.20;;
19679;SDS011;9989;48.962;9.182;2023-01-25T12:52:46;25.23;;;12.37;;
19679;SDS011;9989;48.962;9.182;2023-01-25T12:58:15;23.53;;;11.80;;
19679;SDS011;9989;48.962;9.182;2023-01-25T13:06:21;22.73;;;12.03;;
19679;SDS011;9989;48.962;9.182;2023-01-25T13:11:42;29.07;;;15.07;;
19679;SDS011;9989;48.962;9.182;2023-01-25T13:21:57;18.90;;;9.20;;
19679;SDS011;9989;48.962;9.182;2023-01-25T13:24:24;21.07;;;10.33;;
19679;SDS011;9989;48.962;9.182;2023-01-25T13:32:04;19.77;;;9.50;;
19679;SDS011;9989;48.962;9.182;2023-01-25T13:37:00;20.13;;;10.23;;
19679;SDS011;9989;48.962;9.182;2023-01-25T13:39:45;20.83;;;9.53;;
19679;SDS011;9989;48.962;9.182;2023-01-25T13:44:39;20.20;;;9.33;;
19679;SDS011;9989;48.962;9.182;2023-01-25T13:47:10;19.53;;;9.30;;
19679;SDS011;9989;48.962;9.182;2023-01-25T13:49:40;22.83;;;11.90;;
19679;SDS011;9989;48.962;9.182;2023-01-25T13:52:13;19.37;;;9.67;;
19679;SDS011;9989;48.962;9.182;2023-01-25T13:54:42;18.57;;;9.07;;
19679;SDS011;9989;48.962;9.182;2023-01-25T13:57:11;21.30;;;10.00;;
19679;SDS011;9989;48.962;9.182;2023-01-25T13:59:45;19.83;;;9.53;;
19679;SDS011;9989;48.962;9.182;2023-01-25T14:02:12;22.20;;;11.30;;
19679;SDS011;9989;48.962;9.182;2023-01-25T14:04:46;22.63;;;11.37;;
19679;SDS011;9989;48.962;9.182;2023-01-25T14:07:14;23.30;;;10.63;;
19679;SDS011;9989;48.962;9.182;2023-01-25T14:09:43;24.10;;;10.47;;
19679;SDS011;9989;48.962;9.182;2023-01-25T14:12:09;22.17;;;10.57;;
19679;SDS011;9989;48.962;9.182;2023-01-25T14:14:36;21.07;;;10.73;;
19679;SDS011;9989;48.962;9.182;2023-01-25T14:17:19;24.70;;;13.80;;
19679;SDS011;9989;48.962;9.182;2023-01-25T14:19:47;20.50;;;11.00;;
19679;SDS011;9989;48.962;9.182;2023-01-25T14:24:43;22.17;;;10.53;;
19679;SDS011;9989;48.962;9.182;2023-01-25T14:27:12;16.90;;;9.27;;
19679;SDS011;9989;48.962;9.182;2023-01-25T14:29:38;25.20;;;10.27;;
19679;SDS011;9989;48.962;9.182;2023-01-25T14:32:05;22.17;;;11.10;;
19679;SDS011;9989;48.962;9.182;2023-01-25T14:34:30;21.07;;;9.47;;
19679;SDS011;9989;48.962;9.182;2023-01-25T14:39:54;30.20;;;14.47;;
19679;SDS011;9989;48.962;9.182;2023-01-25T14:42:20;42.00;;;18.77;;
19679;SDS011;9989;48.962;9.182;2023-01-25T14:44:45;97.10;;;36.53;;
19679;SDS011;9989;48.962;9.182;2023-01-25T14:47:25;86.10;;;32.83;;
19679;SDS011;9989;48.962;9.182;2023-01-25T14:53:22;46.23;;;24.00;;
19679;SDS011;9989;48.962;9.182;2023-01-25T14:55:49;48.87;;;25.40;;
19679;SDS011;9989;48.962;9.182;2023-01-25T14:58:16;66.27;;;31.13;;
19679;SDS011;9989;48.962;9.182;2023-01-25T15:00:54;39.77;;;22.30;;
19679;SDS011;9989;48.962;9.182;2023-01-25T15:03:23;36.37;;;19.13;;
19679;SDS011;9989;48.962;9.182;2023-01-25T15:05:50;50.80;;;23.93;;
19679;SDS011;9989;48.962;9.182;2023-01-25T15:08:37;45.00;;;22.17;;
19679;SDS011;9989;48.962;9.182;2023-01-25T15:11:04;26.90;;;14.63;;
19679;SDS011;9989;48.962;9.182;2023-01-25T15:13:50;21.60;;;11.17;;
19679;SDS011;9989;48.962;9.182;2023-01-25T15:16:37;21.87;;;10.97;;
19679;SDS011;9989;48.962;9.182;2023-01-25T15:19:03;25.23;;;12.90;;
19679;SDS011;9989;48.962;9.182;2023-01-25T15:21:49;25.20;;;12.40;;
19679;SDS011;9989;48.962;9.182;2023-01-25T15:24:15;22.57;;;11.43;;
19679;SDS011;9989;48.962;9.182;2023-01-25T15:26:41;25.00;;;12.70;;
19679;SDS011;9989;48.962;9.182;2023-01-25T15:29:13;24.50;;;12.57;;
19679;SDS011;9989;48.962;9.182;2023-01-25T15:31:45;23.77;;;11.27;;
19679;SDS011;9989;48.962;9.182;2023-01-25T15:34:22;24.03;;;11.47;;
19679;SDS011;9989;48.962;9.182;2023-01-25T15:36:50;26.80;;;13.20;;
19679;SDS011;9989;48.962;9.182;2023-01-25T15:39:17;23.73;;;12.27;;
19679;SDS011;9989;48.962;9.182;2023-01-25T15:41:43;26.63;;;13.30;;
19679;SDS011;9989;48.962;9.182;2023-01-25T15:44:10;27.50;;;14.53;;
19679;SDS011;9989;48.962;9.182;2023-01-25T15:49:36;33.37;;;14.93;;
19679;SDS011;9989;48.962;9.182;2023-01-25T15:52:03;29.83;;;14.67;;
19679;SDS011;9989;48.962;9.182;2023-01-25T15:54:30;31.03;;;15.93;;
19679;SDS011;9989;48.962;9.182;2023-01-25T15:56:56;31.17;;;15.40;;
19679;SDS011;9989;48.962;9.182;2023-01-25T15:59:23;34.80;;;17.47;;
19679;SDS011;9989;48.962;9.182;2023-01-25T16:01:49;38.17;;;18.20;;
19679;SDS011;9989;48.962;9.182;2023-01-25T16:04:14;32.20;;;15.87;;
19679;SDS011;9989;48.962;9.182;2023-01-25T16:06:42;34.10;;;15.37;;
19679;SDS011;9989;48.962;9.182;2023-01-25T16:09:16;31.53;;;15.17;;
19679;SDS011;9989;48.962;9.182;2023-01-25T16:11:51;34.43;;;16.33;;
19679;SDS011;9989;48.962;9.182;2023-01-25T16:14:18;33.67;;;16.93;;
19679;SDS011;9989;48.962;9.182;2023-01-25T16:16:45;37.43;;;16.93;;
19679;SDS011;9989;48.962;9.182;2023-01-25T16:19:16;34.43;;;16.07;;
19679;SDS011;9989;48.962;9.182;2023-01-25T16:21:44;32.63;;;15.47;;
19679;SDS011;9989;48.962;9.182;2023-01-25T16:24:09;31.00;;;16.33;;
19679;SDS011;9989;48.962;9.182;2023-01-25T16:26:36;30.77;;;14.83;;
19679;SDS011;9989;48.962;9.182;2023-01-25T16:29:07;34.20;;;17.43;;
19679;SDS011;9989;48.962;9.182;2023-01-25T16:31:34;36.90;;;16.50;;
19679;SDS011;9989;48.962;9.182;2023-01-25T16:34:00;33.93;;;16.83;;
19679;SDS011;9989;48.962;9.182;2023-01-25T16:36:25;32.50;;;16.17;;
19679;SDS011;9989;48.962;9.182;2023-01-25T16:38:51;35.63;;;17.80;;
19679;SDS011;9989;48.962;9.182;2023-01-25T16:41:16;34.03;;;16.93;;
19679;SDS011;9989;48.962;9.182;2023-01-25T16:43:43;32.67;;;17.73;;
19679;SDS011;9989;48.962;9.182;2023-01-25T16:46:20;34.07;;;17.20;;
19679;SDS011;9989;48.962;9.182;2023-01-25T16:48:47;33.53;;;17.97;;
19679;SDS011;9989;48.962;9.182;2023-01-25T16:51:19;43.23;;;20.67;;
19679;SDS011;9989;48.962;9.182;2023-01-25T16:53:50;38.23;;;19.10;;
19679;SDS011;9989;48.962;9.182;2023-01-25T16:56:18;39.40;;;20.83;;
19679;SDS011;9989;48.962;9.182;2023-01-25T16:58:45;41.40;;;22.60;;
19679;SDS011;9989;48.962;9.182;2023-01-25T17:01:11;39.30;;;19.17;;
19679;SDS011;9989;48.962;9.182;2023-01-25T17:03:39;35.00;;;16.50;;